sensor_id;sensor_type;location;lat;lon;timestamp;temperature;humidity
16929;DHT22;8581;47.334;11.190;2023-04-09T00:00:02;1.00;99.90
16929;DHT22;8581;47.334;11.190;2023-04-09T00:02:34;0.90;99.90
16929;DHT22;8581;47.334;11.190;2023-04-09T00:05:06;0.90;99.90
16929;DHT22;8581;47.334;11.190;2023-04-09T00:07:38;0.90;99.90
16929;DHT22;8581;47.334;11.190;2023-04-09T00:10:09;1.00;99.90
16929;DHT22;8581;47.334;11.190;2023-04-09T00:12:41;0.90;99.90
16929;DHT22;8581;47.334;11.190;2023-04-09T00:15:12;0.90;99.90
16929;DHT22;8581;47.334;11.190;2023-04-09T00:17:44;0.80;99.90
16929;DHT22;8581;47.334;11.190;2023-04-09T00:20:16;0.80;99.90
16929;DHT22;8581;47.334;11.190;2023-04-09T00:22:47;0.80;99.90
16929;DHT22;8581;47.334;11.190;2023-04-09T00:25:19;1.00;99.90
16929;DHT22;8581;47.334;11.190;2023-04-09T00:27:50;0.90;99.90
16929;DHT22;8581;47.334;11.190;2023-04-09T00:30:22;0.90;99.90
16929;DHT22;8581;47.334;11.190;2023-04-09T00:32:54;0.90;99.90
16929;DHT22;8581;47.334;11.190;2023-04-09T00:35:25;0.90;99.90
16929;DHT22;8581;47.334;11.190;2023-04-09T00:37:57;0.90;99.90
16929;DHT22;8581;47.334;11.190;2023-04-09T00:40:29;0.90;99.90
16929;DHT22;8581;47.334;11.190;2023-04-09T00:43:00;0.80;99.90
16929;DHT22;8581;47.334;11.190;2023-04-09T00:45:32;0.80;99.90
16929;DHT22;8581;47.334;11.190;2023-04-09T00:48:04;0.80;99.90
16929;DHT22;8581;47.334;11.190;2023-04-09T00:50:35;0.80;99.90
16929;DHT22;8581;47.334;11.190;2023-04-09T00:53:07;0.80;99.90
16929;DHT22;8581;47.334;11.190;2023-04-09T00:55:39;0.80;99.90
16929;DHT22;8581;47.334;11.190;2023-04-09T00:58:10;0.70;99.90
16929;DHT22;8581;47.334;11.190;2023-04-09T01:00:42;0.80;99.90
16929;DHT22;8581;47.334;11.190;2023-04-09T01:03:13;0.70;99.90
16929;DHT22;8581;47.334;11.190;2023-04-09T01:06:05;0.70;99.90
16929;DHT22;8581;47.334;11.190;2023-04-09T01:08:52;0.70;99.90
16929;DHT22;8581;47.334;11.190;2023-04-09T01:11:31;0.60;99.90
16929;DHT22;8581;47.334;11.190;2023-04-09T01:16:49;0.60;99.90
16929;DHT22;8581;47.334;11.190;2023-04-09T01:19:31;0.60;99.90
16929;DHT22;8581;47.334;11.190;2023-04-09T01:21:56;0.60;99.90
16929;DHT22;8581;47.334;11.190;2023-04-09T01:27:20;0.70;99.90
16929;DHT22;8581;47.334;11.190;2023-04-09T01:29:51;0.70;99.90
16929;DHT22;8581;47.334;11.190;2023-04-09T01:32:23;0.70;99.90
16929;DHT22;8581;47.334;11.190;2023-04-09T01:34:54;0.70;99.90
16929;DHT22;8581;47.334;11.190;2023-04-09T01:37:26;0.70;99.90
16929;DHT22;8581;47.334;11.190;2023-04-09T01:39:58;0.60;99.90
16929;DHT22;8581;47.334;11.190;2023-04-09T01:42:29;0.60;99.90
16929;DHT22;8581;47.334;11.190;2023-04-09T01:45:01;0.70;99.90
16929;DHT22;8581;47.334;11.190;2023-04-09T01:47:33;0.60;99.90
16929;DHT22;8581;47.334;11.190;2023-04-09T01:50:05;0.60;99.90
16929;DHT22;8581;47.334;11.190;2023-04-09T01:52:36;0.50;99.90
16929;DHT22;8581;47.334;11.190;2023-04-09T01:55:09;0.70;99.90
16929;DHT22;8581;47.334;11.190;2023-04-09T01:57:40;0.60;99.90
16929;DHT22;8581;47.334;11.190;2023-04-09T02:00:13;0.50;99.90
16929;DHT22;8581;47.334;11.190;2023-04-09T02:02:48;0.40;99.90
16929;DHT22;8581;47.334;11.190;2023-04-09T02:05:17;0.40;99.90
16929;DHT22;8581;47.334;11.190;2023-04-09T02:07:51;0.40;99.90
16929;DHT22;8581;47.334;11.190;2023-04-09T02:10:21;0.40;99.90
16929;DHT22;8581;47.334;11.190;2023-04-09T02:12:52;0.30;99.90
16929;DHT22;8581;47.334;11.190;2023-04-09T02:15:23;0.40;99.90
16929;DHT22;8581;47.334;11.190;2023-04-09T02:17:55;0.20;99.90
16929;DHT22;8581;47.334;11.190;2023-04-09T02:20:27;0.20;99.90
16929;DHT22;8581;47.334;11.190;2023-04-09T02:22:58;0.30;99.90
16929;DHT22;8581;47.334;11.190;2023-04-09T02:25:30;0.20;99.90
16929;DHT22;8581;47.334;11.190;2023-04-09T02:28:01;0.10;99.90
16929;DHT22;8581;47.334;11.190;2023-04-09T02:30:33;0.00;99.90
16929;DHT22;8581;47.334;11.190;2023-04-09T02:33:04;0.00;99.90
16929;DHT22;8581;47.334;11.190;2023-04-09T02:35:36;-0.10;99.90
16929;DHT22;8581;47.334;11.190;2023-04-09T02:38:08;-0.10;99.90
16929;DHT22;8581;47.334;11.190;2023-04-09T02:40:40;-0.10;99.90
16929;DHT22;8581;47.334;11.190;2023-04-09T02:43:12;-0.10;99.90
16929;DHT22;8581;47.334;11.190;2023-04-09T02:45:43;-0.20;99.90
16929;DHT22;8581;47.334;11.190;2023-04-09T02:48:15;-0.30;99.90
16929;DHT22;8581;47.334;11.190;2023-04-09T02:50:46;-0.40;99.90
16929;DHT22;8581;47.334;11.190;2023-04-09T02:53:18;-0.30;99.90
16929;DHT22;8581;47.334;11.190;2023-04-09T02:55:49;-0.20;99.90
16929;DHT22;8581;47.334;11.190;2023-04-09T02:58:21;-0.20;99.90
16929;DHT22;8581;47.334;11.190;2023-04-09T03:00:53;-0.20;99.90
16929;DHT22;8581;47.334;11.190;2023-04-09T03:03:24;-0.20;99.90
16929;DHT22;8581;47.334;11.190;2023-04-09T03:05:56;-0.20;99.90
16929;DHT22;8581;47.334;11.190;2023-04-09T03:08:28;-0.10;99.90
16929;DHT22;8581;47.334;11.190;2023-04-09T03:10:59;-0.10;99.90
16929;DHT22;8581;47.334;11.190;2023-04-09T03:13:31;-0.10;99.90
16929;DHT22;8581;47.334;11.190;2023-04-09T03:16:02;-0.10;99.90
16929;DHT22;8581;47.334;11.190;2023-04-09T03:18:34;-0.10;99.90
16929;DHT22;8581;47.334;11.190;2023-04-09T03:21:07;0.00;99.90
16929;DHT22;8581;47.334;11.190;2023-04-09T03:23:38;0.10;99.90
16929;DHT22;8581;47.334;11.190;2023-04-09T03:26:09;0.10;99.90
16929;DHT22;8581;47.334;11.190;2023-04-09T03:28:41;0.20;99.90
16929;DHT22;8581;47.334;11.190;2023-04-09T03:31:12;0.20;99.90
16929;DHT22;8581;47.334;11.190;2023-04-09T03:33:44;0.20;99.90
16929;DHT22;8581;47.334;11.190;2023-04-09T03:36:16;0.20;99.90
16929;DHT22;8581;47.334;11.190;2023-04-09T03:38:47;0.20;99.90
16929;DHT22;8581;47.334;11.190;2023-04-09T03:41:19;0.00;99.90
16929;DHT22;8581;47.334;11.190;2023-04-09T03:43:50;-0.10;99.90
16929;DHT22;8581;47.334;11.190;2023-04-09T03:46:22;-0.20;99.90
16929;DHT22;8581;47.334;11.190;2023-04-09T03:48:54;-0.20;99.90
16929;DHT22;8581;47.334;11.190;2023-04-09T03:51:25;-0.10;99.90
16929;DHT22;8581;47.334;11.190;2023-04-09T03:53:57;-0.10;99.90
16929;DHT22;8581;47.334;11.190;2023-04-09T03:56:29;-0.10;99.90
16929;DHT22;8581;47.334;11.190;2023-04-09T03:59:00;-0.10;99.90
16929;DHT22;8581;47.334;11.190;2023-04-09T04:01:32;-0.10;99.90
16929;DHT22;8581;47.334;11.190;2023-04-09T04:04:03;-0.20;99.90
16929;DHT22;8581;47.334;11.190;2023-04-09T04:06:35;-0.20;99.90
16929;DHT22;8581;47.334;11.190;2023-04-09T04:09:07;-0.30;99.90
16929;DHT22;8581;47.334;11.190;2023-04-09T04:11:38;-0.40;99.90
16929;DHT22;8581;47.334;11.190;2023-04-09T04:14:10;-0.40;99.90
16929;DHT22;8581;47.334;11.190;2023-04-09T04:16:42;-0.30;99.90
16929;DHT22;8581;47.334;11.190;2023-04-09T04:19:13;-0.30;99.90
16929;DHT22;8581;47.334;11.190;2023-04-09T04:21:45;-0.20;99.90
16929;DHT22;8581;47.334;11.190;2023-04-09T04:24:17;0.00;99.90
16929;DHT22;8581;47.334;11.190;2023-04-09T04:26:48;0.00;99.90
16929;DHT22;8581;47.334;11.190;2023-04-09T04:29:20;0.00;99.90
16929;DHT22;8581;47.334;11.190;2023-04-09T04:31:51;0.10;99.90
16929;DHT22;8581;47.334;11.190;2023-04-09T04:34:23;0.30;99.90
16929;DHT22;8581;47.334;11.190;2023-04-09T04:36:55;0.20;99.90
16929;DHT22;8581;47.334;11.190;2023-04-09T04:39:26;0.30;99.90
16929;DHT22;8581;47.334;11.190;2023-04-09T04:41:58;0.30;99.90
16929;DHT22;8581;47.334;11.190;2023-04-09T04:44:30;0.40;99.90
16929;DHT22;8581;47.334;11.190;2023-04-09T04:47:01;0.20;99.90
16929;DHT22;8581;47.334;11.190;2023-04-09T04:49:33;0.10;99.90
16929;DHT22;8581;47.334;11.190;2023-04-09T04:52:05;0.20;99.90
16929;DHT22;8581;47.334;11.190;2023-04-09T04:54:36;0.20;99.90
16929;DHT22;8581;47.334;11.190;2023-04-09T04:57:08;0.20;99.90
16929;DHT22;8581;47.334;11.190;2023-04-09T04:59:39;0.30;99.90
16929;DHT22;8581;47.334;11.190;2023-04-09T05:02:11;0.40;99.90
16929;DHT22;8581;47.334;11.190;2023-04-09T05:04:42;0.50;99.90
16929;DHT22;8581;47.334;11.190;2023-04-09T05:07:14;0.40;99.90
16929;DHT22;8581;47.334;11.190;2023-04-09T05:09:46;0.60;99.90
16929;DHT22;8581;47.334;11.190;2023-04-09T05:12:17;0.50;99.90
16929;DHT22;8581;47.334;11.190;2023-04-09T05:14:49;0.50;99.90
16929;DHT22;8581;47.334;11.190;2023-04-09T05:17:20;0.50;99.90
16929;DHT22;8581;47.334;11.190;2023-04-09T05:19:52;0.50;99.90
16929;DHT22;8581;47.334;11.190;2023-04-09T05:22:24;0.70;99.90
16929;DHT22;8581;47.334;11.190;2023-04-09T05:24:55;0.70;99.90
16929;DHT22;8581;47.334;11.190;2023-04-09T05:27:27;0.70;99.90
16929;DHT22;8581;47.334;11.190;2023-04-09T05:29:58;0.70;99.90
16929;DHT22;8581;47.334;11.190;2023-04-09T05:32:30;0.70;99.90
16929;DHT22;8581;47.334;11.190;2023-04-09T05:35:02;0.80;99.90
16929;DHT22;8581;47.334;11.190;2023-04-09T05:37:33;0.80;99.90
16929;DHT22;8581;47.334;11.190;2023-04-09T05:40:06;0.90;99.90
16929;DHT22;8581;47.334;11.190;2023-04-09T05:42:37;1.10;99.90
16929;DHT22;8581;47.334;11.190;2023-04-09T05:45:10;1.20;99.90
16929;DHT22;8581;47.334;11.190;2023-04-09T05:47:41;1.10;99.90
16929;DHT22;8581;47.334;11.190;2023-04-09T05:50:13;1.10;99.90
16929;DHT22;8581;47.334;11.190;2023-04-09T05:52:44;1.20;99.90
16929;DHT22;8581;47.334;11.190;2023-04-09T05:55:16;1.20;99.90
16929;DHT22;8581;47.334;11.190;2023-04-09T05:57:48;1.20;99.90
16929;DHT22;8581;47.334;11.190;2023-04-09T06:00:19;1.30;99.90
16929;DHT22;8581;47.334;11.190;2023-04-09T06:02:51;1.60;99.90
16929;DHT22;8581;47.334;11.190;2023-04-09T06:05:22;1.70;99.90
16929;DHT22;8581;47.334;11.190;2023-04-09T06:07:54;1.60;99.90
16929;DHT22;8581;47.334;11.190;2023-04-09T06:10:26;1.70;99.90
16929;DHT22;8581;47.334;11.190;2023-04-09T06:12:57;1.90;99.90
16929;DHT22;8581;47.334;11.190;2023-04-09T06:15:29;2.00;99.90
16929;DHT22;8581;47.334;11.190;2023-04-09T06:18:01;2.10;99.90
16929;DHT22;8581;47.334;11.190;2023-04-09T06:20:32;1.80;99.90
16929;DHT22;8581;47.334;11.190;2023-04-09T06:23:04;1.90;99.90
16929;DHT22;8581;47.334;11.190;2023-04-09T06:25:35;1.90;99.90
16929;DHT22;8581;47.334;11.190;2023-04-09T06:28:07;1.80;99.90
16929;DHT22;8581;47.334;11.190;2023-04-09T06:30:39;1.80;99.90
16929;DHT22;8581;47.334;11.190;2023-04-09T06:33:10;1.90;99.90
16929;DHT22;8581;47.334;11.190;2023-04-09T06:35:42;2.20;99.90
16929;DHT22;8581;47.334;11.190;2023-04-09T06:38:14;2.20;99.90
16929;DHT22;8581;47.334;11.190;2023-04-09T06:40:46;2.50;99.90
16929;DHT22;8581;47.334;11.190;2023-04-09T06:43:17;2.60;99.90
16929;DHT22;8581;47.334;11.190;2023-04-09T06:45:49;2.70;99.90
16929;DHT22;8581;47.334;11.190;2023-04-09T06:48:21;2.50;99.90
16929;DHT22;8581;47.334;11.190;2023-04-09T06:50:52;2.40;99.90
16929;DHT22;8581;47.334;11.190;2023-04-09T06:53:24;2.50;99.90
16929;DHT22;8581;47.334;11.190;2023-04-09T06:55:55;2.70;99.90
16929;DHT22;8581;47.334;11.190;2023-04-09T06:58:27;2.80;99.90
16929;DHT22;8581;47.334;11.190;2023-04-09T07:00:59;2.70;99.90
16929;DHT22;8581;47.334;11.190;2023-04-09T07:03:30;2.70;99.90
16929;DHT22;8581;47.334;11.190;2023-04-09T07:06:02;2.80;99.90
16929;DHT22;8581;47.334;11.190;2023-04-09T07:08:34;2.90;99.90
16929;DHT22;8581;47.334;11.190;2023-04-09T07:11:06;2.90;99.90
16929;DHT22;8581;47.334;11.190;2023-04-09T07:13:37;2.80;99.90
16929;DHT22;8581;47.334;11.190;2023-04-09T07:16:09;2.80;99.90
16929;DHT22;8581;47.334;11.190;2023-04-09T07:18:40;3.00;99.90
16929;DHT22;8581;47.334;11.190;2023-04-09T07:21:12;2.90;99.90
16929;DHT22;8581;47.334;11.190;2023-04-09T07:23:44;3.10;99.90
16929;DHT22;8581;47.334;11.190;2023-04-09T07:26:15;3.30;99.90
16929;DHT22;8581;47.334;11.190;2023-04-09T07:28:47;3.30;99.90
16929;DHT22;8581;47.334;11.190;2023-04-09T07:31:18;3.50;99.90
16929;DHT22;8581;47.334;11.190;2023-04-09T07:33:50;3.40;99.90
16929;DHT22;8581;47.334;11.190;2023-04-09T07:36:21;3.80;99.90
16929;DHT22;8581;47.334;11.190;2023-04-09T07:38:53;4.10;99.90
16929;DHT22;8581;47.334;11.190;2023-04-09T07:41:25;4.50;99.90
16929;DHT22;8581;47.334;11.190;2023-04-09T07:43:56;4.80;99.90
16929;DHT22;8581;47.334;11.190;2023-04-09T07:46:28;4.70;99.90
16929;DHT22;8581;47.334;11.190;2023-04-09T07:49:00;4.70;99.90
16929;DHT22;8581;47.334;11.190;2023-04-09T07:51:31;4.90;99.90
16929;DHT22;8581;47.334;11.190;2023-04-09T07:54:04;5.30;99.90
16929;DHT22;8581;47.334;11.190;2023-04-09T07:56:36;5.40;99.90
16929;DHT22;8581;47.334;11.190;2023-04-09T07:59:07;6.00;99.90
16929;DHT22;8581;47.334;11.190;2023-04-09T08:01:39;6.00;99.90
16929;DHT22;8581;47.334;11.190;2023-04-09T08:04:11;6.10;99.90
16929;DHT22;8581;47.334;11.190;2023-04-09T08:06:42;6.10;99.90
16929;DHT22;8581;47.334;11.190;2023-04-09T08:09:14;6.70;99.90
16929;DHT22;8581;47.334;11.190;2023-04-09T08:11:46;6.10;99.90
16929;DHT22;8581;47.334;11.190;2023-04-09T08:14:17;6.10;99.90
16929;DHT22;8581;47.334;11.190;2023-04-09T08:16:49;6.20;99.90
16929;DHT22;8581;47.334;11.190;2023-04-09T08:19:20;6.30;99.90
16929;DHT22;8581;47.334;11.190;2023-04-09T08:21:52;5.90;99.90
16929;DHT22;8581;47.334;11.190;2023-04-09T08:24:24;6.10;99.90
16929;DHT22;8581;47.334;11.190;2023-04-09T08:26:57;6.00;99.90
16929;DHT22;8581;47.334;11.190;2023-04-09T08:29:29;6.10;99.90
16929;DHT22;8581;47.334;11.190;2023-04-09T08:32:00;6.20;99.90
16929;DHT22;8581;47.334;11.190;2023-04-09T08:34:32;5.70;99.90
16929;DHT22;8581;47.334;11.190;2023-04-09T08:37:06;6.20;99.90
16929;DHT22;8581;47.334;11.190;2023-04-09T08:39:38;6.70;99.90
16929;DHT22;8581;47.334;11.190;2023-04-09T08:42:10;7.20;99.90
16929;DHT22;8581;47.334;11.190;2023-04-09T08:44:41;7.30;99.90
16929;DHT22;8581;47.334;11.190;2023-04-09T08:47:13;7.00;99.90
16929;DHT22;8581;47.334;11.190;2023-04-09T08:49:44;6.80;99.90
16929;DHT22;8581;47.334;11.190;2023-04-09T08:52:16;7.00;99.90
16929;DHT22;8581;47.334;11.190;2023-04-09T08:54:48;7.80;99.90
16929;DHT22;8581;47.334;11.190;2023-04-09T08:57:19;8.20;99.90
16929;DHT22;8581;47.334;11.190;2023-04-09T08:59:51;8.20;99.90
16929;DHT22;8581;47.334;11.190;2023-04-09T09:02:22;8.50;99.90
16929;DHT22;8581;47.334;11.190;2023-04-09T09:04:54;8.60;99.90
16929;DHT22;8581;47.334;11.190;2023-04-09T09:07:27;9.10;99.90
16929;DHT22;8581;47.334;11.190;2023-04-09T09:09:59;9.10;99.90
16929;DHT22;8581;47.334;11.190;2023-04-09T09:12:31;9.00;99.90
16929;DHT22;8581;47.334;11.190;2023-04-09T09:15:03;9.60;99.90
16929;DHT22;8581;47.334;11.190;2023-04-09T09:17:41;10.00;99.90
16929;DHT22;8581;47.334;11.190;2023-04-09T09:20:17;10.00;99.90
16929;DHT22;8581;47.334;11.190;2023-04-09T09:22:49;9.60;99.90
16929;DHT22;8581;47.334;11.190;2023-04-09T09:25:20;9.50;99.90
16929;DHT22;8581;47.334;11.190;2023-04-09T09:27:53;9.20;99.90
16929;DHT22;8581;47.334;11.190;2023-04-09T09:30:25;9.80;99.90
16929;DHT22;8581;47.334;11.190;2023-04-09T09:33:05;10.00;99.90
16929;DHT22;8581;47.334;11.190;2023-04-09T09:35:47;10.00;99.90
16929;DHT22;8581;47.334;11.190;2023-04-09T09:38:19;9.60;99.90
16929;DHT22;8581;47.334;11.190;2023-04-09T09:40:50;9.60;99.90
16929;DHT22;8581;47.334;11.190;2023-04-09T09:43:22;9.10;99.90
16929;DHT22;8581;47.334;11.190;2023-04-09T09:45:53;8.70;99.90
16929;DHT22;8581;47.334;11.190;2023-04-09T09:48:25;9.00;99.90
16929;DHT22;8581;47.334;11.190;2023-04-09T09:50:57;9.40;99.90
16929;DHT22;8581;47.334;11.190;2023-04-09T09:53:28;9.30;99.90
16929;DHT22;8581;47.334;11.190;2023-04-09T09:56:00;9.30;99.90
16929;DHT22;8581;47.334;11.190;2023-04-09T09:58:35;9.50;99.90
16929;DHT22;8581;47.334;11.190;2023-04-09T10:01:07;9.30;99.90
16929;DHT22;8581;47.334;11.190;2023-04-09T10:03:39;10.00;99.90
16929;DHT22;8581;47.334;11.190;2023-04-09T10:06:10;10.40;99.90
16929;DHT22;8581;47.334;11.190;2023-04-09T10:08:41;9.90;99.90
16929;DHT22;8581;47.334;11.190;2023-04-09T10:11:13;9.60;99.90
16929;DHT22;8581;47.334;11.190;2023-04-09T10:13:47;9.50;99.90
16929;DHT22;8581;47.334;11.190;2023-04-09T10:16:17;9.90;99.90
16929;DHT22;8581;47.334;11.190;2023-04-09T10:18:49;9.40;99.90
16929;DHT22;8581;47.334;11.190;2023-04-09T10:21:41;8.50;99.90
16929;DHT22;8581;47.334;11.190;2023-04-09T10:24:11;8.50;99.90
16929;DHT22;8581;47.334;11.190;2023-04-09T10:26:42;8.20;99.90
16929;DHT22;8581;47.334;11.190;2023-04-09T10:29:15;7.80;99.90
16929;DHT22;8581;47.334;11.190;2023-04-09T10:31:54;8.20;99.90
16929;DHT22;8581;47.334;11.190;2023-04-09T10:34:28;8.80;99.90
16929;DHT22;8581;47.334;11.190;2023-04-09T10:37:00;8.60;99.90
16929;DHT22;8581;47.334;11.190;2023-04-09T10:39:32;8.20;99.90
16929;DHT22;8581;47.334;11.190;2023-04-09T10:42:06;8.60;99.90
16929;DHT22;8581;47.334;11.190;2023-04-09T10:44:34;9.50;99.90
16929;DHT22;8581;47.334;11.190;2023-04-09T10:47:07;10.40;99.90
16929;DHT22;8581;47.334;11.190;2023-04-09T10:49:40;11.00;99.90
16929;DHT22;8581;47.334;11.190;2023-04-09T10:52:10;11.90;99.90
16929;DHT22;8581;47.334;11.190;2023-04-09T10:54:43;11.40;99.90
16929;DHT22;8581;47.334;11.190;2023-04-09T10:57:17;10.70;99.90
16929;DHT22;8581;47.334;11.190;2023-04-09T10:59:52;10.60;99.90
16929;DHT22;8581;47.334;11.190;2023-04-09T11:02:46;9.80;99.90
16929;DHT22;8581;47.334;11.190;2023-04-09T11:05:25;10.00;99.90
16929;DHT22;8581;47.334;11.190;2023-04-09T11:08:02;9.90;99.90
16929;DHT22;8581;47.334;11.190;2023-04-09T11:10:32;10.40;99.90
16929;DHT22;8581;47.334;11.190;2023-04-09T11:13:04;10.60;99.90
16929;DHT22;8581;47.334;11.190;2023-04-09T11:15:35;10.90;99.90
16929;DHT22;8581;47.334;11.190;2023-04-09T11:18:07;10.50;99.90
16929;DHT22;8581;47.334;11.190;2023-04-09T11:20:38;10.40;99.90
16929;DHT22;8581;47.334;11.190;2023-04-09T11:23:10;10.60;99.90
16929;DHT22;8581;47.334;11.190;2023-04-09T11:25:42;10.60;99.90
16929;DHT22;8581;47.334;11.190;2023-04-09T11:28:13;10.60;99.90
16929;DHT22;8581;47.334;11.190;2023-04-09T11:30:45;10.10;99.90
16929;DHT22;8581;47.334;11.190;2023-04-09T11:33:17;10.10;99.90
16929;DHT22;8581;47.334;11.190;2023-04-09T11:35:49;10.30;99.90
16929;DHT22;8581;47.334;11.190;2023-04-09T11:38:20;10.00;99.90
16929;DHT22;8581;47.334;11.190;2023-04-09T11:40:55;10.00;99.90
16929;DHT22;8581;47.334;11.190;2023-04-09T11:43:24;9.50;99.90
16929;DHT22;8581;47.334;11.190;2023-04-09T11:45:55;9.60;99.90
16929;DHT22;8581;47.334;11.190;2023-04-09T11:48:27;9.60;99.90
16929;DHT22;8581;47.334;11.190;2023-04-09T11:50:58;9.90;99.90
16929;DHT22;8581;47.334;11.190;2023-04-09T11:53:30;9.80;99.90
16929;DHT22;8581;47.334;11.190;2023-04-09T11:56:02;10.50;99.90
16929;DHT22;8581;47.334;11.190;2023-04-09T11:58:33;10.40;99.90
16929;DHT22;8581;47.334;11.190;2023-04-09T12:01:05;10.10;99.90
16929;DHT22;8581;47.334;11.190;2023-04-09T12:03:36;10.50;99.90
16929;DHT22;8581;47.334;11.190;2023-04-09T12:06:08;10.60;99.90
16929;DHT22;8581;47.334;11.190;2023-04-09T12:08:40;10.90;99.90
16929;DHT22;8581;47.334;11.190;2023-04-09T12:11:13;11.30;99.90
16929;DHT22;8581;47.334;11.190;2023-04-09T12:13:44;11.00;99.90
16929;DHT22;8581;47.334;11.190;2023-04-09T12:16:17;11.00;99.90
16929;DHT22;8581;47.334;11.190;2023-04-09T12:18:47;10.40;99.90
16929;DHT22;8581;47.334;11.190;2023-04-09T12:21:18;10.40;99.90
16929;DHT22;8581;47.334;11.190;2023-04-09T12:23:50;11.10;99.90
16929;DHT22;8581;47.334;11.190;2023-04-09T12:26:22;12.20;99.90
16929;DHT22;8581;47.334;11.190;2023-04-09T12:28:53;13.00;99.90
16929;DHT22;8581;47.334;11.190;2023-04-09T12:31:25;13.10;99.90
16929;DHT22;8581;47.334;11.190;2023-04-09T12:33:57;13.10;99.90
16929;DHT22;8581;47.334;11.190;2023-04-09T12:36:28;13.30;99.90
16929;DHT22;8581;47.334;11.190;2023-04-09T12:39:00;12.90;99.90
16929;DHT22;8581;47.334;11.190;2023-04-09T12:41:31;12.90;99.90
16929;DHT22;8581;47.334;11.190;2023-04-09T12:44:03;12.00;99.90
16929;DHT22;8581;47.334;11.190;2023-04-09T12:46:35;11.20;99.90
16929;DHT22;8581;47.334;11.190;2023-04-09T12:49:06;11.00;99.90
16929;DHT22;8581;47.334;11.190;2023-04-09T12:51:38;11.00;99.90
16929;DHT22;8581;47.334;11.190;2023-04-09T12:54:09;10.60;99.90
16929;DHT22;8581;47.334;11.190;2023-04-09T12:56:41;10.80;99.90
16929;DHT22;8581;47.334;11.190;2023-04-09T12:59:13;10.80;99.90
16929;DHT22;8581;47.334;11.190;2023-04-09T13:01:44;11.30;99.90
16929;DHT22;8581;47.334;11.190;2023-04-09T13:04:16;12.10;99.90
16929;DHT22;8581;47.334;11.190;2023-04-09T13:06:47;13.20;99.90
16929;DHT22;8581;47.334;11.190;2023-04-09T13:09:19;12.50;99.90
16929;DHT22;8581;47.334;11.190;2023-04-09T13:11:51;12.80;99.90
16929;DHT22;8581;47.334;11.190;2023-04-09T13:14:22;12.30;99.90
16929;DHT22;8581;47.334;11.190;2023-04-09T13:16:54;12.10;99.90
16929;DHT22;8581;47.334;11.190;2023-04-09T13:19:25;12.30;99.90
16929;DHT22;8581;47.334;11.190;2023-04-09T13:21:57;12.20;99.90
16929;DHT22;8581;47.334;11.190;2023-04-09T13:24:29;14.30;99.90
16929;DHT22;8581;47.334;11.190;2023-04-09T13:27:01;18.60;99.90
16929;DHT22;8581;47.334;11.190;2023-04-09T13:29:32;19.40;94.80
16929;DHT22;8581;47.334;11.190;2023-04-09T13:32:03;17.90;95.70
16929;DHT22;8581;47.334;11.190;2023-04-09T13:34:38;19.90;95.20
16929;DHT22;8581;47.334;11.190;2023-04-09T13:37:09;21.10;90.80
16929;DHT22;8581;47.334;11.190;2023-04-09T13:39:41;23.00;76.80
16929;DHT22;8581;47.334;11.190;2023-04-09T13:42:12;21.30;75.20
16929;DHT22;8581;47.334;11.190;2023-04-09T13:44:44;19.80;77.50
16929;DHT22;8581;47.334;11.190;2023-04-09T13:47:16;18.20;87.20
16929;DHT22;8581;47.334;11.190;2023-04-09T13:49:47;18.70;82.30
16929;DHT22;8581;47.334;11.190;2023-04-09T13:52:19;17.40;88.00
16929;DHT22;8581;47.334;11.190;2023-04-09T13:54:50;18.10;90.70
16929;DHT22;8581;47.334;11.190;2023-04-09T13:57:22;18.30;88.90
16929;DHT22;8581;47.334;11.190;2023-04-09T13:59:54;19.20;88.90
16929;DHT22;8581;47.334;11.190;2023-04-09T14:02:25;20.70;84.80
16929;DHT22;8581;47.334;11.190;2023-04-09T14:04:57;22.40;82.70
16929;DHT22;8581;47.334;11.190;2023-04-09T14:07:28;23.30;77.30
16929;DHT22;8581;47.334;11.190;2023-04-09T14:10:00;24.20;74.80
16929;DHT22;8581;47.334;11.190;2023-04-09T14:12:32;24.20;75.50
16929;DHT22;8581;47.334;11.190;2023-04-09T14:15:04;23.10;71.30
16929;DHT22;8581;47.334;11.190;2023-04-09T14:17:36;19.80;78.40
16929;DHT22;8581;47.334;11.190;2023-04-09T14:20:08;19.40;80.80
16929;DHT22;8581;47.334;11.190;2023-04-09T14:22:39;21.90;77.80
16929;DHT22;8581;47.334;11.190;2023-04-09T14:25:11;22.60;76.20
16929;DHT22;8581;47.334;11.190;2023-04-09T14:27:43;24.00;72.20
16929;DHT22;8581;47.334;11.190;2023-04-09T14:30:14;23.60;69.90
16929;DHT22;8581;47.334;11.190;2023-04-09T14:32:46;23.60;71.80
16929;DHT22;8581;47.334;11.190;2023-04-09T14:35:18;24.70;70.10
16929;DHT22;8581;47.334;11.190;2023-04-09T14:37:49;24.80;68.00
16929;DHT22;8581;47.334;11.190;2023-04-09T14:40:21;25.70;67.60
16929;DHT22;8581;47.334;11.190;2023-04-09T14:42:52;24.00;69.50
16929;DHT22;8581;47.334;11.190;2023-04-09T14:45:24;23.40;69.20
16929;DHT22;8581;47.334;11.190;2023-04-09T14:47:56;23.60;69.10
16929;DHT22;8581;47.334;11.190;2023-04-09T14:50:29;22.90;67.20
16929;DHT22;8581;47.334;11.190;2023-04-09T14:52:59;21.10;69.80
16929;DHT22;8581;47.334;11.190;2023-04-09T14:55:30;19.80;74.30
16929;DHT22;8581;47.334;11.190;2023-04-09T14:58:02;21.10;74.10
16929;DHT22;8581;47.334;11.190;2023-04-09T15:00:34;22.10;68.80
16929;DHT22;8581;47.334;11.190;2023-04-09T15:03:05;23.20;70.00
16929;DHT22;8581;47.334;11.190;2023-04-09T15:05:37;23.40;68.10
16929;DHT22;8581;47.334;11.190;2023-04-09T15:08:08;22.80;67.80
16929;DHT22;8581;47.334;11.190;2023-04-09T15:10:40;23.00;69.00
16929;DHT22;8581;47.334;11.190;2023-04-09T15:13:12;23.70;69.70
16929;DHT22;8581;47.334;11.190;2023-04-09T15:15:43;22.70;68.70
16929;DHT22;8581;47.334;11.190;2023-04-09T15:18:15;21.10;72.20
16929;DHT22;8581;47.334;11.190;2023-04-09T15:20:47;21.30;73.30
16929;DHT22;8581;47.334;11.190;2023-04-09T15:23:19;22.90;69.90
16929;DHT22;8581;47.334;11.190;2023-04-09T15:25:50;22.50;67.80
16929;DHT22;8581;47.334;11.190;2023-04-09T15:28:22;21.70;69.90
16929;DHT22;8581;47.334;11.190;2023-04-09T15:30:54;20.90;71.40
16929;DHT22;8581;47.334;11.190;2023-04-09T15:33:25;21.00;70.70
16929;DHT22;8581;47.334;11.190;2023-04-09T15:35:57;19.80;73.20
16929;DHT22;8581;47.334;11.190;2023-04-09T15:38:28;19.90;74.70
16929;DHT22;8581;47.334;11.190;2023-04-09T15:41:00;20.10;73.30
16929;DHT22;8581;47.334;11.190;2023-04-09T15:43:32;19.50;73.10
16929;DHT22;8581;47.334;11.190;2023-04-09T15:46:09;17.30;77.20
16929;DHT22;8581;47.334;11.190;2023-04-09T15:48:41;15.60;80.90
16929;DHT22;8581;47.334;11.190;2023-04-09T15:51:12;15.00;82.60
16929;DHT22;8581;47.334;11.190;2023-04-09T15:53:44;15.20;84.40
16929;DHT22;8581;47.334;11.190;2023-04-09T15:56:16;18.00;80.00
16929;DHT22;8581;47.334;11.190;2023-04-09T15:58:47;19.20;76.50
16929;DHT22;8581;47.334;11.190;2023-04-09T16:01:19;20.50;74.00
16929;DHT22;8581;47.334;11.190;2023-04-09T16:03:50;20.90;74.00
16929;DHT22;8581;47.334;11.190;2023-04-09T16:06:22;21.20;73.70
16929;DHT22;8581;47.334;11.190;2023-04-09T16:08:54;20.50;72.20
16929;DHT22;8581;47.334;11.190;2023-04-09T16:11:25;19.70;72.30
16929;DHT22;8581;47.334;11.190;2023-04-09T16:13:57;19.20;73.00